sensor_id;sensor_type;location;lat;lon;timestamp;pressure;altitude;pressure_sealevel;temperature;humidity
73842;BME280;62184;52.006;5.924;2023-04-06T00:00:03;101054.19;;;10.41;34.48
73842;BME280;62184;52.006;5.924;2023-04-06T00:02:31;101053.38;;;10.37;34.48
73842;BME280;62184;52.006;5.924;2023-04-06T00:04:57;101048.06;;;10.36;34.49
73842;BME280;62184;52.006;5.924;2023-04-06T00:07:24;101037.41;;;10.36;34.50
73842;BME280;62184;52.006;5.924;2023-04-06T00:09:53;101039.16;;;10.37;34.25
73842;BME280;62184;52.006;5.924;2023-04-06T00:12:19;101039.06;;;10.40;34.36
73842;BME280;62184;52.006;5.924;2023-04-06T00:14:46;101034.63;;;10.40;34.24
73842;BME280;62184;52.006;5.924;2023-04-06T00:17:15;101040.81;;;10.43;34.26
73842;BME280;62184;52.006;5.924;2023-04-06T00:19:42;101041.75;;;10.40;34.45
73842;BME280;62184;52.006;5.924;2023-04-06T00:22:09;101033.00;;;10.32;34.53
73842;BME280;62184;52.006;5.924;2023-04-06T00:24:35;101031.22;;;10.32;34.37
73842;BME280;62184;52.006;5.924;2023-04-06T00:27:02;101033.91;;;10.32;34.55
73842;BME280;62184;52.006;5.924;2023-04-06T00:29:28;101023.31;;;10.29;34.75
73842;BME280;62184;52.006;5.924;2023-04-06T00:31:55;101022.41;;;10.29;34.72
73842;BME280;62184;52.006;5.924;2023-04-06T00:34:24;101017.97;;;10.29;34.92
73842;BME280;62184;52.006;5.924;2023-04-06T00:36:50;101014.34;;;10.30;34.90
73842;BME280;62184;52.006;5.924;2023-04-06T00:39:16;101013.41;;;10.33;34.79
73842;BME280;62184;52.006;5.924;2023-04-06T00:41:46;101009.84;;;10.34;34.87
73842;BME280;62184;52.006;5.924;2023-04-06T00:44:17;100997.34;;;10.36;34.85
73842;BME280;62184;52.006;5.924;2023-04-06T00:46:44;101002.59;;;10.39;34.73
73842;BME280;62184;52.006;5.924;2023-04-06T00:49:11;101006.09;;;10.43;34.71
73842;BME280;62184;52.006;5.924;2023-04-06T00:51:40;101004.28;;;10.45;34.69
73842;BME280;62184;52.006;5.924;2023-04-06T00:54:07;101000.72;;;10.44;34.78
73842;BME280;62184;52.006;5.924;2023-04-06T00:56:33;100997.25;;;10.40;35.04
73842;BME280;62184;52.006;5.924;2023-04-06T00:59:00;101005.34;;;10.37;34.92
73842;BME280;62184;52.006;5.924;2023-04-06T01:01:29;101001.81;;;10.35;34.98
73842;BME280;62184;52.006;5.924;2023-04-06T01:03:55;100992.03;;;10.34;34.96
73842;BME280;62184;52.006;5.924;2023-04-06T01:06:22;100996.53;;;10.32;35.09
73842;BME280;62184;52.006;5.924;2023-04-06T01:08:53;100985.09;;;10.26;35.38
73842;BME280;62184;52.006;5.924;2023-04-06T01:11:20;100984.28;;;10.22;35.51
73842;BME280;62184;52.006;5.924;2023-04-06T01:13:47;100979.88;;;10.21;35.61
73842;BME280;62184;52.006;5.924;2023-04-06T01:16:14;100976.38;;;10.18;35.57
73842;BME280;62184;52.006;5.924;2023-04-06T01:18:41;100972.97;;;10.11;35.94
73842;BME280;62184;52.006;5.924;2023-04-06T01:21:09;100972.22;;;10.05;36.01
73842;BME280;62184;52.006;5.924;2023-04-06T01:23:39;100974.06;;;10.01;36.24
73842;BME280;62184;52.006;5.924;2023-04-06T01:26:11;100974.19;;;9.95;36.87
73842;BME280;62184;52.006;5.924;2023-04-06T01:28:38;100974.28;;;9.89;36.62
73842;BME280;62184;52.006;5.924;2023-04-06T01:31:06;100968.16;;;9.85;36.71
73842;BME280;62184;52.006;5.924;2023-04-06T01:33:33;100957.63;;;9.79;36.83
73842;BME280;62184;52.006;5.924;2023-04-06T01:36:00;100963.88;;;9.77;37.10
73842;BME280;62184;52.006;5.924;2023-04-06T01:38:27;100958.63;;;9.72;37.04
73842;BME280;62184;52.006;5.924;2023-04-06T01:40:56;100951.63;;;9.67;37.21
73842;BME280;62184;52.006;5.924;2023-04-06T01:43:22;100954.41;;;9.60;37.49
73842;BME280;62184;52.006;5.924;2023-04-06T01:45:48;100950.03;;;9.56;37.54
73842;BME280;62184;52.006;5.924;2023-04-06T01:48:15;100949.22;;;9.54;37.33
73842;BME280;62184;52.006;5.924;2023-04-06T01:50:42;100944.78;;;9.53;37.61
73842;BME280;62184;52.006;5.924;2023-04-06T01:53:08;100943.94;;;9.50;37.98
73842;BME280;62184;52.006;5.924;2023-04-06T01:55:35;100943.06;;;9.49;37.97
73842;BME280;62184;52.006;5.924;2023-04-06T01:58:04;100944.00;;;9.47;38.00
73842;BME280;62184;52.006;5.924;2023-04-06T02:00:30;100939.63;;;9.44;38.09
73842;BME280;62184;52.006;5.924;2023-04-06T02:02:56;100934.28;;;9.44;38.04
73842;BME280;62184;52.006;5.924;2023-04-06T02:05:24;100939.63;;;9.44;38.02
73842;BME280;62184;52.006;5.924;2023-04-06T02:07:51;100930.75;;;9.42;38.29
73842;BME280;62184;52.006;5.924;2023-04-06T02:10:18;100938.75;;;9.44;38.44
73842;BME280;62184;52.006;5.924;2023-04-06T02:12:44;100928.06;;;9.45;38.48
73842;BME280;62184;52.006;5.924;2023-04-06T02:15:13;100924.44;;;9.48;38.37
73842;BME280;62184;52.006;5.924;2023-04-06T02:17:40;100925.31;;;9.48;38.49
73842;BME280;62184;52.006;5.924;2023-04-06T02:20:07;100921.75;;;9.49;38.53
73842;BME280;62184;52.006;5.924;2023-04-06T02:22:34;100919.06;;;9.51;38.54
73842;BME280;62184;52.006;5.924;2023-04-06T02:25:01;100906.63;;;9.50;38.61
73842;BME280;62184;52.006;5.924;2023-04-06T02:27:28;100914.66;;;9.48;38.67
73842;BME280;62184;52.006;5.924;2023-04-06T02:29:54;100914.66;;;9.48;38.77
73842;BME280;62184;52.006;5.924;2023-04-06T02:32:23;100910.19;;;9.49;38.67
73842;BME280;62184;52.006;5.924;2023-04-06T02:34:49;100909.25;;;9.51;38.80
73842;BME280;62184;52.006;5.924;2023-04-06T02:37:16;100909.25;;;9.51;38.76
73842;BME280;62184;52.006;5.924;2023-04-06T02:39:42;100907.50;;;9.50;38.68
73842;BME280;62184;52.006;5.924;2023-04-06T02:42:08;100906.63;;;9.50;38.62
73842;BME280;62184;52.006;5.924;2023-04-06T02:44:35;100909.25;;;9.51;38.92
73842;BME280;62184;52.006;5.924;2023-04-06T02:47:02;100906.63;;;9.50;38.97
73842;BME280;62184;52.006;5.924;2023-04-06T02:49:31;100901.34;;;9.47;38.94
73842;BME280;62184;52.006;5.924;2023-04-06T02:51:58;100904.06;;;9.45;39.05
73842;BME280;62184;52.006;5.924;2023-04-06T02:54:25;100897.00;;;9.43;39.17
73842;BME280;62184;52.006;5.924;2023-04-06T02:56:51;100894.34;;;9.41;39.27
73842;BME280;62184;52.006;5.924;2023-04-06T02:59:18;100896.22;;;9.38;39.50
73842;BME280;62184;52.006;5.924;2023-04-06T03:01:44;100898.78;;;9.42;39.27
73842;BME280;62184;52.006;5.924;2023-04-06T03:04:11;100888.94;;;9.46;39.27
73842;BME280;62184;52.006;5.924;2023-04-06T03:06:42;100895.97;;;9.48;39.42
73842;BME280;62184;52.006;5.924;2023-04-06T03:09:10;100892.44;;;9.48;39.23
73842;BME280;62184;52.006;5.924;2023-04-06T03:11:36;100895.06;;;9.49;39.32
73842;BME280;62184;52.006;5.924;2023-04-06T03:14:04;100885.28;;;9.50;39.21
73842;BME280;62184;52.006;5.924;2023-04-06T03:16:30;100887.00;;;9.54;39.32
73842;BME280;62184;52.006;5.924;2023-04-06T03:18:57;100885.13;;;9.57;39.33
73842;BME280;62184;52.006;5.924;2023-04-06T03:21:23;100878.91;;;9.58;39.31
73842;BME280;62184;52.006;5.924;2023-04-06T03:23:52;100881.56;;;9.58;39.35
73842;BME280;62184;52.006;5.924;2023-04-06T03:26:18;100881.53;;;9.60;39.38
73842;BME280;62184;52.006;5.924;2023-04-06T03:28:45;100877.84;;;9.65;39.21
73842;BME280;62184;52.006;5.924;2023-04-06T03:31:11;100878.72;;;9.68;39.32
73842;BME280;62184;52.006;5.924;2023-04-06T03:33:38;100875.03;;;9.73;39.25
73842;BME280;62184;52.006;5.924;2023-04-06T03:36:05;100873.09;;;9.80;39.25
73842;BME280;62184;52.006;5.924;2023-04-06T03:38:32;100877.47;;;9.84;39.15
73842;BME280;62184;52.006;5.924;2023-04-06T03:41:01;100875.63;;;9.87;38.92
73842;BME280;62184;52.006;5.924;2023-04-06T03:43:27;100875.50;;;9.93;39.10
73842;BME280;62184;52.006;5.924;2023-04-06T03:45:54;100869.25;;;9.94;38.98
73842;BME280;62184;52.006;5.924;2023-04-06T03:48:21;100874.50;;;9.97;39.07
73842;BME280;62184;52.006;5.924;2023-04-06T03:50:50;100863.81;;;9.99;38.83
73842;BME280;62184;52.006;5.924;2023-04-06T03:53:16;100865.50;;;10.03;38.83
73842;BME280;62184;52.006;5.924;2023-04-06T03:55:42;100868.19;;;10.01;38.76
73842;BME280;62184;52.006;5.924;2023-04-06T03:58:11;100862.00;;;10.01;38.86
73842;BME280;62184;52.006;5.924;2023-04-06T04:00:38;100863.75;;;10.02;38.77
73842;BME280;62184;52.006;5.924;2023-04-06T04:03:04;100865.50;;;10.03;38.83
73842;BME280;62184;52.006;5.924;2023-04-06T04:05:30;100860.16;;;10.05;38.85
73842;BME280;62184;52.006;5.924;2023-04-06T04:07:57;100864.53;;;10.06;39.00
73842;BME280;62184;52.006;5.924;2023-04-06T04:10:23;100866.31;;;10.05;39.01
73842;BME280;62184;52.006;5.924;2023-04-06T04:12:50;100870.84;;;10.03;38.86
73842;BME280;62184;52.006;5.924;2023-04-06T04:15:19;100860.16;;;10.03;38.87
73842;BME280;62184;52.006;5.924;2023-04-06T04:17:45;100867.28;;;10.04;39.01
73842;BME280;62184;52.006;5.924;2023-04-06T04:20:13;100873.50;;;10.03;38.96
73842;BME280;62184;52.006;5.924;2023-04-06T04:22:40;100864.59;;;10.04;39.00
73842;BME280;62184;52.006;5.924;2023-04-06T04:25:07;100871.66;;;10.05;38.86
73842;BME280;62184;52.006;5.924;2023-04-06T04:27:34;100863.59;;;10.08;38.70
73842;BME280;62184;52.006;5.924;2023-04-06T04:30:01;100874.22;;;10.11;38.64
73842;BME280;62184;52.006;5.924;2023-04-06T04:32:31;100868.03;;;10.09;38.31
73842;BME280;62184;52.006;5.924;2023-04-06T04:34:57;100873.38;;;10.09;38.47
73842;BME280;62184;52.006;5.924;2023-04-06T04:37:24;100872.47;;;10.10;38.27
73842;BME280;62184;52.006;5.924;2023-04-06T04:39:50;100878.66;;;10.12;38.41
73842;BME280;62184;52.006;5.924;2023-04-06T04:42:17;100869.66;;;10.16;38.24
73842;BME280;62184;52.006;5.924;2023-04-06T04:44:44;100863.41;;;10.17;38.17
73842;BME280;62184;52.006;5.924;2023-04-06T04:47:10;100870.50;;;10.18;38.15
73842;BME280;62184;52.006;5.924;2023-04-06T04:49:39;100870.44;;;10.21;37.99
73842;BME280;62184;52.006;5.924;2023-04-06T04:52:06;100873.94;;;10.23;38.01
73842;BME280;62184;52.006;5.924;2023-04-06T04:54:33;100862.34;;;10.24;38.04
73842;BME280;62184;52.006;5.924;2023-04-06T04:56:59;100856.97;;;10.26;37.94
73842;BME280;62184;52.006;5.924;2023-04-06T04:59:26;100852.47;;;10.28;37.90
73842;BME280;62184;52.006;5.924;2023-04-06T05:01:52;100843.56;;;10.29;37.77
73842;BME280;62184;52.006;5.924;2023-04-06T05:04:19;100855.03;;;10.32;37.71
73842;BME280;62184;52.006;5.924;2023-04-06T05:06:48;100851.41;;;10.35;37.74
73842;BME280;62184;52.006;5.924;2023-04-06T05:09:14;100851.41;;;10.35;37.70
73842;BME280;62184;52.006;5.924;2023-04-06T05:11:41;100857.63;;;10.35;37.81
73842;BME280;62184;52.006;5.924;2023-04-06T05:14:07;100855.81;;;10.37;37.81
73842;BME280;62184;52.006;5.924;2023-04-06T05:16:36;100846.81;;;10.41;37.72
73842;BME280;62184;52.006;5.924;2023-04-06T05:19:02;100852.06;;;10.45;37.61
73842;BME280;62184;52.006;5.924;2023-04-06T05:21:28;100844.06;;;10.45;37.54
73842;BME280;62184;52.006;5.924;2023-04-06T05:23:57;100845.81;;;10.46;37.66
73842;BME280;62184;52.006;5.924;2023-04-06T05:26:24;100839.47;;;10.50;37.61
73842;BME280;62184;52.006;5.924;2023-04-06T05:28:50;100841.22;;;10.52;37.36
73842;BME280;62184;52.006;5.924;2023-04-06T05:31:17;100844.72;;;10.54;37.79
73842;BME280;62184;52.006;5.924;2023-04-06T05:33:43;100843.69;;;10.60;37.52
73842;BME280;62184;52.006;5.924;2023-04-06T05:36:10;100839.09;;;10.65;37.32
73842;BME280;62184;52.006;5.924;2023-04-06T05:38:37;100839.78;;;10.73;37.62
73842;BME280;62184;52.006;5.924;2023-04-06T05:41:06;100835.16;;;10.81;37.37
73842;BME280;62184;52.006;5.924;2023-04-06T05:43:33;100833.25;;;10.86;37.25
73842;BME280;62184;52.006;5.924;2023-04-06T05:45:59;100832.16;;;10.93;37.36
73842;BME280;62184;52.006;5.924;2023-04-06T05:48:25;100821.28;;;11.01;37.34
73842;BME280;62184;52.006;5.924;2023-04-06T05:50:52;100845.03;;;11.11;37.20
73842;BME280;62184;52.006;5.924;2023-04-06T05:53:18;100831.38;;;11.22;37.04
73842;BME280;62184;52.006;5.924;2023-04-06T05:55:45;100838.25;;;11.31;36.94
73842;BME280;62184;52.006;5.924;2023-04-06T05:58:14;100832.88;;;11.32;36.93
73842;BME280;62184;52.006;5.924;2023-04-06T06:00:40;100839.88;;;11.38;36.98
73842;BME280;62184;52.006;5.924;2023-04-06T06:03:06;100832.53;;;11.44;36.80
73842;BME280;62184;52.006;5.924;2023-04-06T06:05:33;100831.13;;;11.62;36.43
73842;BME280;62184;52.006;5.924;2023-04-06T06:07:59;100837.13;;;11.70;36.36
73842;BME280;62184;52.006;5.924;2023-04-06T06:10:26;100838.13;;;11.66;36.51
73842;BME280;62184;52.006;5.924;2023-04-06T06:12:52;100832.66;;;11.71;36.61
73842;BME280;62184;52.006;5.924;2023-04-06T06:15:21;100836.72;;;11.84;36.61
73842;BME280;62184;52.006;5.924;2023-04-06T06:17:48;100826.38;;;12.01;35.87
73842;BME280;62184;52.006;5.924;2023-04-06T06:20:16;100821.84;;;12.03;36.19
73842;BME280;62184;52.006;5.924;2023-04-06T06:22:42;100833.31;;;12.07;36.07
73842;BME280;62184;52.006;5.924;2023-04-06T06:25:09;100826.03;;;12.13;36.19
73842;BME280;62184;52.006;5.924;2023-04-06T06:27:35;100815.25;;;12.15;35.96
73842;BME280;62184;52.006;5.924;2023-04-06T06:30:02;100823.91;;;12.23;35.83
73842;BME280;62184;52.006;5.924;2023-04-06T06:32:32;100828.19;;;12.30;36.03
73842;BME280;62184;52.006;5.924;2023-04-06T06:34:58;100825.34;;;12.35;35.81
73842;BME280;62184;52.006;5.924;2023-04-06T06:37:25;100837.50;;;12.45;35.74
73842;BME280;62184;52.006;5.924;2023-04-06T06:39:51;100831.94;;;12.51;36.07
73842;BME280;62184;52.006;5.924;2023-04-06T06:42:18;100836.03;;;12.62;35.72
73842;BME280;62184;52.006;5.924;2023-04-06T06:44:44;100830.28;;;12.73;35.86
73842;BME280;62184;52.006;5.924;2023-04-06T06:47:11;100827.25;;;12.84;35.65
73842;BME280;62184;52.006;5.924;2023-04-06T06:49:40;100832.06;;;12.99;35.60
73842;BME280;62184;52.006;5.924;2023-04-06T06:52:06;100825.19;;;13.17;35.98
73842;BME280;62184;52.006;5.924;2023-04-06T06:54:32;100825.09;;;13.45;35.35
73842;BME280;62184;52.006;5.924;2023-04-06T06:56:59;100824.47;;;13.61;35.75
73842;BME280;62184;52.006;5.924;2023-04-06T06:59:25;100832.00;;;13.75;35.16
73842;BME280;62184;52.006;5.924;2023-04-06T07:01:52;100813.56;;;13.89;34.62
73842;BME280;62184;52.006;5.924;2023-04-06T07:04:18;100816.00;;;13.95;34.74
73842;BME280;62184;52.006;5.924;2023-04-06T07:06:47;100811.88;;;14.08;34.80
73842;BME280;62184;52.006;5.924;2023-04-06T07:09:14;100809.78;;;14.16;34.42
73842;BME280;62184;52.006;5.924;2023-04-06T07:11:41;100815.41;;;14.10;34.71
73842;BME280;62184;52.006;5.924;2023-04-06T07:14:07;100806.31;;;14.14;34.21
73842;BME280;62184;52.006;5.924;2023-04-06T07:16:34;100799.75;;;14.22;34.59
73842;BME280;62184;52.006;5.924;2023-04-06T07:19:00;100803.66;;;14.35;34.20
73842;BME280;62184;52.006;5.924;2023-04-06T07:21:26;100804.28;;;14.41;33.66
73842;BME280;62184;52.006;5.924;2023-04-06T07:23:55;100803.28;;;14.44;33.53
73842;BME280;62184;52.006;5.924;2023-04-06T07:26:22;100795.78;;;14.52;33.81
73842;BME280;62184;52.006;5.924;2023-04-06T07:28:48;100806.06;;;14.64;34.39
73842;BME280;62184;52.006;5.924;2023-04-06T07:31:15;100804.66;;;14.76;34.05
73842;BME280;62184;52.006;5.924;2023-04-06T07:33:41;100798.00;;;14.84;33.95
73842;BME280;62184;52.006;5.924;2023-04-06T07:36:08;100796.66;;;14.94;34.05
73842;BME280;62184;52.006;5.924;2023-04-06T07:38:34;100803.34;;;15.06;33.87
73842;BME280;62184;52.006;5.924;2023-04-06T07:41:03;100809.91;;;15.19;34.28
73842;BME280;62184;52.006;5.924;2023-04-06T07:43:30;100803.25;;;15.28;33.44
73842;BME280;62184;52.006;5.924;2023-04-06T07:45:56;100802.97;;;15.34;33.19
73842;BME280;62184;52.006;5.924;2023-04-06T07:48:23;100796.44;;;15.40;33.40
73842;BME280;62184;52.006;5.924;2023-04-06T07:50:49;100800.53;;;15.48;32.89
73842;BME280;62184;52.006;5.924;2023-04-06T07:53:15;100799.97;;;15.60;32.60
73842;BME280;62184;52.006;5.924;2023-04-06T07:55:44;100794.31;;;15.66;32.38
73842;BME280;62184;52.006;5.924;2023-04-06T07:58:13;100805.09;;;15.66;32.25
73842;BME280;62184;52.006;5.924;2023-04-06T08:00:39;100796.94;;;15.68;31.95
73842;BME280;62184;52.006;5.924;2023-04-06T08:03:06;100797.81;;;15.68;31.93
73842;BME280;62184;52.006;5.924;2023-04-06T08:05:32;100798.69;;;15.69;31.80
73842;BME280;62184;52.006;5.924;2023-04-06T08:07:58;100793.53;;;15.64;31.69
73842;BME280;62184;52.006;5.924;2023-04-06T08:10:25;100799.25;;;15.57;31.47
73842;BME280;62184;52.006;5.924;2023-04-06T08:12:52;100794.56;;;15.60;31.68
73842;BME280;62184;52.006;5.924;2023-04-06T08:15:21;100790.69;;;15.67;31.99
73842;BME280;62184;52.006;5.924;2023-04-06T08:17:47;100785.88;;;15.74;32.09
73842;BME280;62184;52.006;5.924;2023-04-06T08:20:14;100780.28;;;15.79;32.06
73842;BME280;62184;52.006;5.924;2023-04-06T08:22:40;100779.41;;;15.78;32.08
73842;BME280;62184;52.006;5.924;2023-04-06T08:25:07;100784.56;;;15.83;32.66
73842;BME280;62184;52.006;5.924;2023-04-06T08:27:36;100784.31;;;15.89;32.52
73842;BME280;62184;52.006;5.924;2023-04-06T08:30:03;100786.75;;;15.93;32.45
73842;BME280;62184;52.006;5.924;2023-04-06T08:32:33;100779.50;;;15.95;32.20
73842;BME280;62184;52.006;5.924;2023-04-06T08:35:00;100782.69;;;16.03;32.56
73842;BME280;62184;52.006;5.924;2023-04-06T08:37:27;100776.06;;;16.11;32.16
73842;BME280;62184;52.006;5.924;2023-04-06T08:39:53;100781.88;;;16.20;32.52
73842;BME280;62184;52.006;5.924;2023-04-06T08:42:21;100770.72;;;16.28;31.83
73842;BME280;62184;52.006;5.924;2023-04-06T08:44:55;100776.72;;;16.33;31.90
73842;BME280;62184;52.006;5.924;2023-04-06T08:47:21;100775.50;;;16.40;31.34
73842;BME280;62184;52.006;5.924;2023-04-06T08:49:51;100771.00;;;16.40;31.34
73842;BME280;62184;52.006;5.924;2023-04-06T08:52:19;100773.81;;;16.37;31.36
73842;BME280;62184;52.006;5.924;2023-04-06T08:54:47;100778.84;;;16.45;31.05
73842;BME280;62184;52.006;5.924;2023-04-06T08:57:13;100780.34;;;16.51;31.08
73842;BME280;62184;52.006;5.924;2023-04-06T08:59:41;100769.63;;;16.49;30.54
73842;BME280;62184;52.006;5.924;2023-04-06T09:02:15;100776.47;;;16.56;30.67
73842;BME280;62184;52.006;5.924;2023-04-06T09:04:45;100776.75;;;16.69;30.37
73842;BME280;62184;52.006;5.924;2023-04-06T09:07:18;100777.41;;;16.74;30.08
73842;BME280;62184;52.006;5.924;2023-04-06T09:09:44;100783.63;;;16.74;30.15
73842;BME280;62184;52.006;5.924;2023-04-06T09:12:22;100781.66;;;16.78;30.26
73842;BME280;62184;52.006;5.924;2023-04-06T09:14:49;100785.78;;;16.85;30.25
73842;BME280;62184;52.006;5.924;2023-04-06T09:17:20;100785.00;;;17.00;30.24
73842;BME280;62184;52.006;5.924;2023-04-06T09:19:47;100779.97;;;17.27;30.47
73842;BME280;62184;52.006;5.924;2023-04-06T09:22:17;100774.13;;;17.52;30.18
73842;BME280;62184;52.006;5.924;2023-04-06T09:24:45;100775.75;;;17.72;30.08
73842;BME280;62184;52.006;5.924;2023-04-06T09:27:14;100766.44;;;17.77;29.54
73842;BME280;62184;52.006;5.924;2023-04-06T09:29:41;100773.66;;;17.77;29.66
73842;BME280;62184;52.006;5.924;2023-04-06T09:32:09;100776.66;;;17.88;29.68
73842;BME280;62184;52.006;5.924;2023-04-06T09:34:38;100773.16;;;18.02;29.69
73842;BME280;62184;52.006;5.924;2023-04-06T09:37:17;100773.50;;;17.95;29.50
73842;BME280;62184;52.006;5.924;2023-04-06T09:39:45;100773.34;;;17.99;29.68
73842;BME280;62184;52.006;5.924;2023-04-06T09:42:23;100769.56;;;18.17;29.68
73842;BME280;62184;52.006;5.924;2023-04-06T09:44:50;100763.56;;;18.27;29.47
73842;BME280;62184;52.006;5.924;2023-04-06T09:47:16;100762.59;;;18.28;29.49
73842;BME280;62184;52.006;5.924;2023-04-06T09:49:45;100772.13;;;18.20;29.59
73842;BME280;62184;52.006;5.924;2023-04-06T09:52:19;100765.13;;;18.31;29.85
73842;BME280;62184;52.006;5.924;2023-04-06T09:54:51;100767.84;;;18.47;29.43
73842;BME280;62184;52.006;5.924;2023-04-06T09:57:25;100756.19;;;18.61;29.16
73842;BME280;62184;52.006;5.924;2023-04-06T09:59:58;100763.41;;;18.76;29.59
73842;BME280;62184;52.006;5.924;2023-04-06T10:02:35;100767.13;;;18.89;29.64
73842;BME280;62184;52.006;5.924;2023-04-06T10:05:16;100764.81;;;18.97;29.74
73842;BME280;62184;52.006;5.924;2023-04-06T10:07:53;100762.19;;;18.96;28.86
73842;BME280;62184;52.006;5.924;2023-04-06T10:10:25;100763.00;;;18.98;29.31
73842;BME280;62184;52.006;5.924;2023-04-06T10:12:52;100762.22;;;19.10;29.15
73842;BME280;62184;52.006;5.924;2023-04-06T10:15:19;100763.00;;;19.12;28.75
73842;BME280;62184;52.006;5.924;2023-04-06T10:17:47;100768.25;;;19.15;29.08
73842;BME280;62184;52.006;5.924;2023-04-06T10:20:18;100764.94;;;19.10;29.15
73842;BME280;62184;52.006;5.924;2023-04-06T10:22:55;100769.59;;;19.08;29.55
73842;BME280;62184;52.006;5.924;2023-04-06T10:25:30;100765.72;;;19.12;29.23
73842;BME280;62184;52.006;5.924;2023-04-06T10:28:00;100773.44;;;19.04;28.79
73842;BME280;62184;52.006;5.924;2023-04-06T10:30:28;100773.53;;;19.02;29.07
73842;BME280;62184;52.006;5.924;2023-04-06T10:32:54;100779.31;;;18.96;28.96
73842;BME280;62184;52.006;5.924;2023-04-06T10:35:21;100768.34;;;18.84;29.20
73842;BME280;62184;52.006;5.924;2023-04-06T10:37:53;100772.53;;;18.89;29.14
73842;BME280;62184;52.006;5.924;2023-04-06T10:40:26;100774.06;;;18.93;29.20
73842;BME280;62184;52.006;5.924;2023-04-06T10:42:54;100779.16;;;18.99;29.56
73842;BME280;62184;52.006;5.924;2023-04-06T10:45:22;100773.81;;;18.98;29.22
73842;BME280;62184;52.006;5.924;2023-04-06T10:47:52;100767.22;;;19.02;29.43
73842;BME280;62184;52.006;5.924;2023-04-06T10:50:19;100773.72;;;18.99;29.30
73842;BME280;62184;52.006;5.924;2023-04-06T10:52:46;100766.19;;;19.04;29.62
73842;BME280;62184;52.006;5.924;2023-04-06T10:55:26;100759.34;;;19.27;29.75
73842;BME280;62184;52.006;5.924;2023-04-06T10:57:54;100766.41;;;19.30;29.45
73842;BME280;62184;52.006;5.924;2023-04-06T11:00:21;100765.53;;;19.29;29.33
73842;BME280;62184;52.006;5.924;2023-04-06T11:02:47;100763.44;;;19.34;29.72
73842;BME280;62184;52.006;5.924;2023-04-06T11:05:14;100759.09;;;19.46;29.63
73842;BME280;62184;52.006;5.924;2023-04-06T11:07:41;100771.03;;;19.58;29.62
73842;BME280;62184;52.006;5.924;2023-04-06T11:10:08;100759.97;;;19.75;29.66
73842;BME280;62184;52.006;5.924;2023-04-06T11:12:38;100761.59;;;19.92;29.61
73842;BME280;62184;52.006;5.924;2023-04-06T11:15:06;100762.25;;;19.95;29.39
73842;BME280;62184;52.006;5.924;2023-04-06T11:17:34;100759.84;;;19.76;29.14
73842;BME280;62184;52.006;5.924;2023-04-06T11:20:03;100768.41;;;19.56;29.79
73842;BME280;62184;52.006;5.924;2023-04-06T11:22:35;100766.84;;;19.52;29.64
73842;BME280;62184;52.006;5.924;2023-04-06T11:25:05;100763.63;;;19.60;30.12
73842;BME280;62184;52.006;5.924;2023-04-06T11:27:32;100758.03;;;19.63;30.27
73842;BME280;62184;52.006;5.924;2023-04-06T11:30:02;100765.28;;;19.62;30.27
73842;BME280;62184;52.006;5.924;2023-04-06T11:32:30;100755.16;;;19.66;30.31
73842;BME280;62184;52.006;5.924;2023-04-06T11:35:06;100752.59;;;19.77;30.82
73842;BME280;62184;52.006;5.924;2023-04-06T11:37:33;100759.19;;;19.73;29.86
73842;BME280;62184;52.006;5.924;2023-04-06T11:40:00;100761.34;;;19.39;30.55
73842;BME280;62184;52.006;5.924;2023-04-06T11:42:28;100752.31;;;19.25;31.19
73842;BME280;62184;52.006;5.924;2023-04-06T11:44:56;100749.19;;;19.17;31.04
73842;BME280;62184;52.006;5.924;2023-04-06T11:47:30;100752.75;;;19.03;31.50
73842;BME280;62184;52.006;5.924;2023-04-06T11:50:06;100746.75;;;18.98;31.73
73842;BME280;62184;52.006;5.924;2023-04-06T11:52:34;100750.75;;;18.77;32.35
73842;BME280;62184;52.006;5.924;2023-04-06T11:55:10;100752.91;;;18.56;32.82
73842;BME280;62184;52.006;5.924;2023-04-06T11:57:40;100755.00;;;18.35;34.06
73842;BME280;62184;52.006;5.924;2023-04-06T12:00:08;100752.41;;;18.18;34.55
73842;BME280;62184;52.006;5.924;2023-04-06T12:02:45;100751.91;;;17.95;35.41
73842;BME280;62184;52.006;5.924;2023-04-06T12:05:12;100754.44;;;17.83;36.19
73842;BME280;62184;52.006;5.924;2023-04-06T12:07:39;100755.03;;;17.72;36.90
73842;BME280;62184;52.006;5.924;2023-04-06T12:10:06;100756.47;;;17.62;37.65
73842;BME280;62184;52.006;5.924;2023-04-06T12:12:33;100762.63;;;17.48;38.23
73842;BME280;62184;52.006;5.924;2023-04-06T12:14:59;100760.50;;;17.38;39.06
73842;BME280;62184;52.006;5.924;2023-04-06T12:17:26;100772.00;;;17.41;39.52
73842;BME280;62184;52.006;5.924;2023-04-06T12:19:55;100756.47;;;17.29;39.22
73842;BME280;62184;52.006;5.924;2023-04-06T12:22:21;100768.63;;;17.20;39.71
73842;BME280;62184;52.006;5.924;2023-04-06T12:24:47;100762.03;;;17.09;39.92
73842;BME280;62184;52.006;5.924;2023-04-06T12:27:14;100768.03;;;16.98;40.53
73842;BME280;62184;52.006;5.924;2023-04-06T12:29:41;100760.16;;;16.94;40.64
73842;BME280;62184;52.006;5.924;2023-04-06T12:32:07;100759.06;;;16.98;40.95
73842;BME280;62184;52.006;5.924;2023-04-06T12:34:34;100758.75;;;16.87;40.74
73842;BME280;62184;52.006;5.924;2023-04-06T12:37:03;100766.91;;;16.68;41.21
73842;BME280;62184;52.006;5.924;2023-04-06T12:39:29;100767.84;;;16.67;42.07
73842;BME280;62184;52.006;5.924;2023-04-06T12:41:56;100762.31;;;16.70;42.15
73842;BME280;62184;52.006;5.924;2023-04-06T12:44:22;100761.59;;;16.66;42.37
73842;BME280;62184;52.006;5.924;2023-04-06T12:46:49;100756.72;;;16.56;42.43
73842;BME280;62184;52.006;5.924;2023-04-06T12:49:15;100755.09;;;16.34;42.30
73842;BME280;62184;52.006;5.924;2023-04-06T12:51:42;100745.09;;;16.19;43.18
73842;BME280;62184;52.006;5.924;2023-04-06T12:54:11;100747.16;;;16.14;43.29